sensor_id;sensor_type;location;lat;lon;timestamp;temperature;humidity
14924;DHT22;7554;43.600;1.480;2023-08-12T00:01:14;24.00;1.00
14924;DHT22;7554;43.600;1.480;2023-08-12T00:03:42;24.00;1.00
14924;DHT22;7554;43.600;1.480;2023-08-12T00:06:09;24.00;1.00
14924;DHT22;7554;43.600;1.480;2023-08-12T00:08:41;23.90;1.00
14924;DHT22;7554;43.600;1.480;2023-08-12T00:11:12;23.80;1.00
14924;DHT22;7554;43.600;1.480;2023-08-12T00:13:42;23.80;1.00
14924;DHT22;7554;43.600;1.480;2023-08-12T00:16:12;23.80;1.00
14924;DHT22;7554;43.600;1.480;2023-08-12T00:18:41;23.80;1.00
14924;DHT22;7554;43.600;1.480;2023-08-12T00:21:09;23.80;1.00
14924;DHT22;7554;43.600;1.480;2023-08-12T00:23:44;23.70;1.00
14924;DHT22;7554;43.600;1.480;2023-08-12T00:26:13;23.70;1.00
14924;DHT22;7554;43.600;1.480;2023-08-12T00:28:48;23.70;1.00
14924;DHT22;7554;43.600;1.480;2023-08-12T00:31:15;23.70;1.00
14924;DHT22;7554;43.600;1.480;2023-08-12T00:33:47;23.60;1.00
14924;DHT22;7554;43.600;1.480;2023-08-12T00:36:15;23.60;1.00
14924;DHT22;7554;43.600;1.480;2023-08-12T00:38:44;23.60;1.00
14924;DHT22;7554;43.600;1.480;2023-08-12T00:41:15;23.60;1.00
14924;DHT22;7554;43.600;1.480;2023-08-12T00:43:43;23.50;1.00
14924;DHT22;7554;43.600;1.480;2023-08-12T00:46:10;23.50;1.00
14924;DHT22;7554;43.600;1.480;2023-08-12T00:48:40;23.50;1.00
14924;DHT22;7554;43.600;1.480;2023-08-12T00:51:14;23.50;1.00
14924;DHT22;7554;43.600;1.480;2023-08-12T00:53:44;23.40;1.00
14924;DHT22;7554;43.600;1.480;2023-08-12T00:56:18;23.40;1.00
14924;DHT22;7554;43.600;1.480;2023-08-12T00:58:47;23.40;1.00
14924;DHT22;7554;43.600;1.480;2023-08-12T01:01:16;23.40;1.00
14924;DHT22;7554;43.600;1.480;2023-08-12T01:03:44;23.40;1.00
14924;DHT22;7554;43.600;1.480;2023-08-12T01:06:14;23.30;1.00
14924;DHT22;7554;43.600;1.480;2023-08-12T01:08:43;23.30;1.00
14924;DHT22;7554;43.600;1.480;2023-08-12T01:11:16;23.30;1.00
14924;DHT22;7554;43.600;1.480;2023-08-12T01:13:52;23.30;1.00
14924;DHT22;7554;43.600;1.480;2023-08-12T01:16:25;23.30;1.00
14924;DHT22;7554;43.600;1.480;2023-08-12T01:18:56;23.20;1.00
14924;DHT22;7554;43.600;1.480;2023-08-12T01:21:24;23.20;1.00
14924;DHT22;7554;43.600;1.480;2023-08-12T01:23:56;23.20;1.00
14924;DHT22;7554;43.600;1.480;2023-08-12T01:26:24;23.20;1.00
14924;DHT22;7554;43.600;1.480;2023-08-12T01:28:51;23.10;1.00
14924;DHT22;7554;43.600;1.480;2023-08-12T01:31:23;23.10;1.00
14924;DHT22;7554;43.600;1.480;2023-08-12T01:33:58;23.10;1.00
14924;DHT22;7554;43.600;1.480;2023-08-12T01:36:29;23.00;1.00
14924;DHT22;7554;43.600;1.480;2023-08-12T01:39:00;23.00;1.00
14924;DHT22;7554;43.600;1.480;2023-08-12T01:41:28;23.00;1.00
14924;DHT22;7554;43.600;1.480;2023-08-12T01:43:56;23.00;1.00
14924;DHT22;7554;43.600;1.480;2023-08-12T01:46:23;22.90;1.00
14924;DHT22;7554;43.600;1.480;2023-08-12T01:48:51;22.90;1.00
14924;DHT22;7554;43.600;1.480;2023-08-12T01:51:18;22.90;1.00
14924;DHT22;7554;43.600;1.480;2023-08-12T01:53:46;22.80;1.00
14924;DHT22;7554;43.600;1.480;2023-08-12T01:56:14;22.80;1.00
14924;DHT22;7554;43.600;1.480;2023-08-12T01:58:42;22.80;1.00
14924;DHT22;7554;43.600;1.480;2023-08-12T02:01:09;22.70;1.00
14924;DHT22;7554;43.600;1.480;2023-08-12T02:03:36;22.70;1.00
14924;DHT22;7554;43.600;1.480;2023-08-12T02:06:04;22.70;1.00
14924;DHT22;7554;43.600;1.480;2023-08-12T02:08:32;22.70;1.00
14924;DHT22;7554;43.600;1.480;2023-08-12T02:10:59;22.70;1.00
14924;DHT22;7554;43.600;1.480;2023-08-12T02:13:28;22.60;1.00
14924;DHT22;7554;43.600;1.480;2023-08-12T02:15:55;22.60;1.00
14924;DHT22;7554;43.600;1.480;2023-08-12T02:18:23;22.60;1.00
14924;DHT22;7554;43.600;1.480;2023-08-12T02:20:50;22.60;1.00
14924;DHT22;7554;43.600;1.480;2023-08-12T02:23:17;22.60;1.00
14924;DHT22;7554;43.600;1.480;2023-08-12T02:25:44;22.50;1.00
14924;DHT22;7554;43.600;1.480;2023-08-12T02:28:12;22.50;1.00
14924;DHT22;7554;43.600;1.480;2023-08-12T02:30:42;22.50;1.00
14924;DHT22;7554;43.600;1.480;2023-08-12T02:33:09;22.50;1.00
14924;DHT22;7554;43.600;1.480;2023-08-12T02:35:36;22.40;1.00
14924;DHT22;7554;43.600;1.480;2023-08-12T02:38:04;22.40;1.00
14924;DHT22;7554;43.600;1.480;2023-08-12T02:40:31;22.30;1.00
14924;DHT22;7554;43.600;1.480;2023-08-12T02:42:59;22.30;1.00
14924;DHT22;7554;43.600;1.480;2023-08-12T02:45:26;22.20;1.00
14924;DHT22;7554;43.600;1.480;2023-08-12T02:47:55;22.20;1.00
14924;DHT22;7554;43.600;1.480;2023-08-12T02:50:22;22.20;1.00
14924;DHT22;7554;43.600;1.480;2023-08-12T02:52:49;22.20;1.00
14924;DHT22;7554;43.600;1.480;2023-08-12T02:55:17;22.10;1.00
14924;DHT22;7554;43.600;1.480;2023-08-12T02:57:44;22.20;1.00
14924;DHT22;7554;43.600;1.480;2023-08-12T03:00:13;22.20;1.00
14924;DHT22;7554;43.600;1.480;2023-08-12T03:02:42;22.10;1.00
14924;DHT22;7554;43.600;1.480;2023-08-12T03:05:11;22.10;1.00
14924;DHT22;7554;43.600;1.480;2023-08-12T03:07:38;22.10;1.00
14924;DHT22;7554;43.600;1.480;2023-08-12T03:10:07;22.10;1.00
14924;DHT22;7554;43.600;1.480;2023-08-12T03:12:35;22.10;1.00
14924;DHT22;7554;43.600;1.480;2023-08-12T03:15:03;22.10;1.00
14924;DHT22;7554;43.600;1.480;2023-08-12T03:17:31;22.00;1.00
14924;DHT22;7554;43.600;1.480;2023-08-12T03:19:58;22.00;1.00
14924;DHT22;7554;43.600;1.480;2023-08-12T03:22:27;22.00;1.00
14924;DHT22;7554;43.600;1.480;2023-08-12T03:24:55;22.00;1.00
14924;DHT22;7554;43.600;1.480;2023-08-12T03:27:22;22.00;1.00
14924;DHT22;7554;43.600;1.480;2023-08-12T03:29:49;21.90;1.00
14924;DHT22;7554;43.600;1.480;2023-08-12T03:32:18;21.90;1.00
14924;DHT22;7554;43.600;1.480;2023-08-12T03:34:45;21.90;1.00
14924;DHT22;7554;43.600;1.480;2023-08-12T03:37:12;21.80;1.00
14924;DHT22;7554;43.600;1.480;2023-08-12T03:39:46;21.80;1.00
14924;DHT22;7554;43.600;1.480;2023-08-12T03:42:27;21.80;1.00
14924;DHT22;7554;43.600;1.480;2023-08-12T03:44:54;21.70;1.00
14924;DHT22;7554;43.600;1.480;2023-08-12T03:47:22;21.70;1.00
14924;DHT22;7554;43.600;1.480;2023-08-12T03:49:50;21.70;1.00
14924;DHT22;7554;43.600;1.480;2023-08-12T03:52:17;21.60;1.00
14924;DHT22;7554;43.600;1.480;2023-08-12T03:54:46;21.50;1.00
14924;DHT22;7554;43.600;1.480;2023-08-12T03:57:14;21.50;1.00
14924;DHT22;7554;43.600;1.480;2023-08-12T03:59:41;21.40;1.00
14924;DHT22;7554;43.600;1.480;2023-08-12T04:02:08;21.50;1.00
14924;DHT22;7554;43.600;1.480;2023-08-12T04:04:36;21.40;1.00
14924;DHT22;7554;43.600;1.480;2023-08-12T04:07:04;21.40;1.00
14924;DHT22;7554;43.600;1.480;2023-08-12T04:09:31;21.40;1.00
14924;DHT22;7554;43.600;1.480;2023-08-12T04:12:00;21.30;1.00
14924;DHT22;7554;43.600;1.480;2023-08-12T04:14:27;21.30;1.00
14924;DHT22;7554;43.600;1.480;2023-08-12T04:16:54;21.20;1.00
14924;DHT22;7554;43.600;1.480;2023-08-12T04:19:22;21.20;1.00
14924;DHT22;7554;43.600;1.480;2023-08-12T04:21:49;21.20;1.00
14924;DHT22;7554;43.600;1.480;2023-08-12T04:24:16;21.10;1.00
14924;DHT22;7554;43.600;1.480;2023-08-12T04:26:44;21.10;1.00
14924;DHT22;7554;43.600;1.480;2023-08-12T04:29:15;21.10;1.00
14924;DHT22;7554;43.600;1.480;2023-08-12T04:31:43;21.10;1.00
14924;DHT22;7554;43.600;1.480;2023-08-12T04:34:10;21.00;1.00
14924;DHT22;7554;43.600;1.480;2023-08-12T04:36:37;21.00;1.00
14924;DHT22;7554;43.600;1.480;2023-08-12T04:39:05;21.00;1.00
14924;DHT22;7554;43.600;1.480;2023-08-12T04:41:32;21.00;1.00
14924;DHT22;7554;43.600;1.480;2023-08-12T04:44:00;21.00;1.00
14924;DHT22;7554;43.600;1.480;2023-08-12T04:46:28;20.90;1.00
14924;DHT22;7554;43.600;1.480;2023-08-12T04:48:56;20.90;1.00
14924;DHT22;7554;43.600;1.480;2023-08-12T04:51:23;20.90;1.00
14924;DHT22;7554;43.600;1.480;2023-08-12T04:53:51;20.90;1.00
14924;DHT22;7554;43.600;1.480;2023-08-12T04:56:18;21.00;1.00
14924;DHT22;7554;43.600;1.480;2023-08-12T04:58:45;21.00;1.00
14924;DHT22;7554;43.600;1.480;2023-08-12T05:01:13;21.00;1.00
14924;DHT22;7554;43.600;1.480;2023-08-12T05:03:42;21.00;1.00
14924;DHT22;7554;43.600;1.480;2023-08-12T05:06:09;21.10;1.00
14924;DHT22;7554;43.600;1.480;2023-08-12T05:08:37;21.30;1.00
14924;DHT22;7554;43.600;1.480;2023-08-12T05:11:04;21.60;1.00
14924;DHT22;7554;43.600;1.480;2023-08-12T05:13:31;21.90;1.00
14924;DHT22;7554;43.600;1.480;2023-08-12T05:15:59;22.20;1.00
14924;DHT22;7554;43.600;1.480;2023-08-12T05:18:26;22.60;1.00
14924;DHT22;7554;43.600;1.480;2023-08-12T05:20:56;23.00;1.00
14924;DHT22;7554;43.600;1.480;2023-08-12T05:23:24;23.50;1.00
14924;DHT22;7554;43.600;1.480;2023-08-12T05:25:52;23.90;1.00
14924;DHT22;7554;43.600;1.480;2023-08-12T05:28:19;24.30;1.00
14924;DHT22;7554;43.600;1.480;2023-08-12T05:30:47;24.70;1.00
14924;DHT22;7554;43.600;1.480;2023-08-12T05:33:15;25.30;1.00
14924;DHT22;7554;43.600;1.480;2023-08-12T05:35:42;25.90;1.00
14924;DHT22;7554;43.600;1.480;2023-08-12T05:38:11;26.30;1.00
14924;DHT22;7554;43.600;1.480;2023-08-12T05:40:38;26.80;1.00
14924;DHT22;7554;43.600;1.480;2023-08-12T05:43:06;27.20;1.00
14924;DHT22;7554;43.600;1.480;2023-08-12T05:45:35;27.80;1.00
14924;DHT22;7554;43.600;1.480;2023-08-12T05:48:02;28.40;1.00
14924;DHT22;7554;43.600;1.480;2023-08-12T05:50:30;29.00;1.00
14924;DHT22;7554;43.600;1.480;2023-08-12T05:52:59;29.50;1.00
14924;DHT22;7554;43.600;1.480;2023-08-12T05:55:28;29.80;1.00
14924;DHT22;7554;43.600;1.480;2023-08-12T05:57:55;30.10;1.00
14924;DHT22;7554;43.600;1.480;2023-08-12T06:00:23;30.70;1.00
14924;DHT22;7554;43.600;1.480;2023-08-12T06:02:50;30.70;1.00
14924;DHT22;7554;43.600;1.480;2023-08-12T06:05:18;31.50;1.00
14924;DHT22;7554;43.600;1.480;2023-08-12T06:07:51;32.30;1.00
14924;DHT22;7554;43.600;1.480;2023-08-12T06:10:21;32.70;1.00
14924;DHT22;7554;43.600;1.480;2023-08-12T06:12:52;32.50;1.00
14924;DHT22;7554;43.600;1.480;2023-08-12T06:15:24;31.30;1.00
14924;DHT22;7554;43.600;1.480;2023-08-12T06:17:57;32.20;1.00
14924;DHT22;7554;43.600;1.480;2023-08-12T06:20:26;32.20;1.00
14924;DHT22;7554;43.600;1.480;2023-08-12T06:22:55;32.00;1.00
14924;DHT22;7554;43.600;1.480;2023-08-12T06:25:31;31.10;1.00
14924;DHT22;7554;43.600;1.480;2023-08-12T06:28:00;29.20;1.00
14924;DHT22;7554;43.600;1.480;2023-08-12T06:30:30;28.20;1.00
14924;DHT22;7554;43.600;1.480;2023-08-12T06:32:57;27.60;1.00
14924;DHT22;7554;43.600;1.480;2023-08-12T06:35:25;27.20;1.00
14924;DHT22;7554;43.600;1.480;2023-08-12T06:37:52;26.80;1.00
14924;DHT22;7554;43.600;1.480;2023-08-12T06:40:22;26.70;1.00
14924;DHT22;7554;43.600;1.480;2023-08-12T06:42:50;27.00;1.00
14924;DHT22;7554;43.600;1.480;2023-08-12T06:45:19;27.20;1.00
14924;DHT22;7554;43.600;1.480;2023-08-12T06:47:47;26.80;1.00
14924;DHT22;7554;43.600;1.480;2023-08-12T06:50:16;26.80;1.00
14924;DHT22;7554;43.600;1.480;2023-08-12T06:52:46;27.30;1.00
14924;DHT22;7554;43.600;1.480;2023-08-12T06:55:14;28.40;1.00
14924;DHT22;7554;43.600;1.480;2023-08-12T06:57:43;30.30;1.00
14924;DHT22;7554;43.600;1.480;2023-08-12T07:00:13;30.90;1.00
14924;DHT22;7554;43.600;1.480;2023-08-12T07:02:50;30.70;1.00
14924;DHT22;7554;43.600;1.480;2023-08-12T07:05:17;31.50;1.00
14924;DHT22;7554;43.600;1.480;2023-08-12T07:07:45;33.30;1.00
14924;DHT22;7554;43.600;1.480;2023-08-12T07:10:12;34.50;1.00
14924;DHT22;7554;43.600;1.480;2023-08-12T07:12:48;34.70;1.00
14924;DHT22;7554;43.600;1.480;2023-08-12T07:15:15;34.30;1.00
14924;DHT22;7554;43.600;1.480;2023-08-12T07:17:46;34.60;1.00
14924;DHT22;7554;43.600;1.480;2023-08-12T07:20:13;35.00;1.00
14924;DHT22;7554;43.600;1.480;2023-08-12T07:22:41;35.00;1.00
14924;DHT22;7554;43.600;1.480;2023-08-12T07:25:09;35.20;1.00
14924;DHT22;7554;43.600;1.480;2023-08-12T07:27:42;34.70;1.00
14924;DHT22;7554;43.600;1.480;2023-08-12T07:30:10;35.20;1.00
14924;DHT22;7554;43.600;1.480;2023-08-12T07:32:38;35.40;1.00
14924;DHT22;7554;43.600;1.480;2023-08-12T07:35:08;36.10;1.00
14924;DHT22;7554;43.600;1.480;2023-08-12T07:37:35;36.60;1.00
14924;DHT22;7554;43.600;1.480;2023-08-12T07:40:03;38.80;1.00
14924;DHT22;7554;43.600;1.480;2023-08-12T07:42:31;39.30;1.00
14924;DHT22;7554;43.600;1.480;2023-08-12T07:44:58;37.50;1.00
14924;DHT22;7554;43.600;1.480;2023-08-12T07:47:25;36.30;1.00
14924;DHT22;7554;43.600;1.480;2023-08-12T07:49:53;37.10;1.00
14924;DHT22;7554;43.600;1.480;2023-08-12T07:52:22;38.00;1.00
14924;DHT22;7554;43.600;1.480;2023-08-12T07:54:49;39.30;1.00
14924;DHT22;7554;43.600;1.480;2023-08-12T07:57:16;40.40;1.00
14924;DHT22;7554;43.600;1.480;2023-08-12T07:59:46;40.00;1.00
14924;DHT22;7554;43.600;1.480;2023-08-12T08:02:13;41.00;1.00
14924;DHT22;7554;43.600;1.480;2023-08-12T08:04:41;41.60;1.00
14924;DHT22;7554;43.600;1.480;2023-08-12T08:07:08;42.00;1.00
14924;DHT22;7554;43.600;1.480;2023-08-12T08:09:37;41.50;1.00
14924;DHT22;7554;43.600;1.480;2023-08-12T08:12:05;41.60;1.00
14924;DHT22;7554;43.600;1.480;2023-08-12T08:14:33;41.90;1.00
14924;DHT22;7554;43.600;1.480;2023-08-12T08:17:00;43.00;1.00
14924;DHT22;7554;43.600;1.480;2023-08-12T08:19:28;41.20;1.00
14924;DHT22;7554;43.600;1.480;2023-08-12T08:21:55;40.00;1.00
14924;DHT22;7554;43.600;1.480;2023-08-12T08:24:22;39.60;1.00
14924;DHT22;7554;43.600;1.480;2023-08-12T08:26:51;40.10;1.00
14924;DHT22;7554;43.600;1.480;2023-08-12T08:29:18;41.50;1.00
14924;DHT22;7554;43.600;1.480;2023-08-12T08:31:46;41.90;1.00
14924;DHT22;7554;43.600;1.480;2023-08-12T08:34:12;42.60;1.00
14924;DHT22;7554;43.600;1.480;2023-08-12T08:36:39;44.00;1.00
14924;DHT22;7554;43.600;1.480;2023-08-12T08:39:07;44.40;1.00
14924;DHT22;7554;43.600;1.480;2023-08-12T08:41:38;44.50;1.00
14924;DHT22;7554;43.600;1.480;2023-08-12T08:44:08;43.80;1.00
14924;DHT22;7554;43.600;1.480;2023-08-12T08:46:36;44.40;1.00
14924;DHT22;7554;43.600;1.480;2023-08-12T08:49:04;45.10;1.00
14924;DHT22;7554;43.600;1.480;2023-08-12T08:51:32;45.40;1.00
14924;DHT22;7554;43.600;1.480;2023-08-12T08:54:02;45.10;1.00
14924;DHT22;7554;43.600;1.480;2023-08-12T08:56:30;45.50;1.00
14924;DHT22;7554;43.600;1.480;2023-08-12T08:58:58;45.50;1.00
14924;DHT22;7554;43.600;1.480;2023-08-12T09:01:28;43.60;1.00
14924;DHT22;7554;43.600;1.480;2023-08-12T09:03:57;43.20;1.00
14924;DHT22;7554;43.600;1.480;2023-08-12T09:06:25;44.60;1.00
14924;DHT22;7554;43.600;1.480;2023-08-12T09:08:53;45.10;1.00
14924;DHT22;7554;43.600;1.480;2023-08-12T09:11:21;45.30;1.00
14924;DHT22;7554;43.600;1.480;2023-08-12T09:13:48;45.40;1.00
14924;DHT22;7554;43.600;1.480;2023-08-12T09:16:16;45.60;1.00
14924;DHT22;7554;43.600;1.480;2023-08-12T09:18:45;44.00;1.00
14924;DHT22;7554;43.600;1.480;2023-08-12T09:21:12;43.20;1.00
14924;DHT22;7554;43.600;1.480;2023-08-12T09:23:40;43.60;1.00
14924;DHT22;7554;43.600;1.480;2023-08-12T09:26:15;44.60;1.00
14924;DHT22;7554;43.600;1.480;2023-08-12T09:28:42;43.50;1.00
14924;DHT22;7554;43.600;1.480;2023-08-12T09:31:22;41.90;1.00
14924;DHT22;7554;43.600;1.480;2023-08-12T09:33:51;42.80;1.00
14924;DHT22;7554;43.600;1.480;2023-08-12T09:36:20;42.90;1.00
14924;DHT22;7554;43.600;1.480;2023-08-12T09:38:48;42.10;1.00
14924;DHT22;7554;43.600;1.480;2023-08-12T09:41:15;41.10;1.00
14924;DHT22;7554;43.600;1.480;2023-08-12T09:43:43;39.90;1.00
14924;DHT22;7554;43.600;1.480;2023-08-12T09:46:11;38.40;1.00
14924;DHT22;7554;43.600;1.480;2023-08-12T09:48:40;36.60;1.00
14924;DHT22;7554;43.600;1.480;2023-08-12T09:51:09;35.60;1.00
14924;DHT22;7554;43.600;1.480;2023-08-12T09:53:37;35.20;1.00
14924;DHT22;7554;43.600;1.480;2023-08-12T09:56:06;34.90;1.00
14924;DHT22;7554;43.600;1.480;2023-08-12T09:58:35;34.80;1.00
14924;DHT22;7554;43.600;1.480;2023-08-12T10:01:03;34.60;1.00
14924;DHT22;7554;43.600;1.480;2023-08-12T10:03:31;34.50;1.00
14924;DHT22;7554;43.600;1.480;2023-08-12T10:06:00;34.40;1.00
14924;DHT22;7554;43.600;1.480;2023-08-12T10:08:29;34.00;1.00
14924;DHT22;7554;43.600;1.480;2023-08-12T10:10:57;34.00;1.00
14924;DHT22;7554;43.600;1.480;2023-08-12T10:13:25;34.10;1.00
14924;DHT22;7554;43.600;1.480;2023-08-12T10:15:53;34.00;1.00
14924;DHT22;7554;43.600;1.480;2023-08-12T10:18:20;34.00;1.00
14924;DHT22;7554;43.600;1.480;2023-08-12T10:20:50;34.20;1.00
14924;DHT22;7554;43.600;1.480;2023-08-12T10:23:18;34.00;1.00
14924;DHT22;7554;43.600;1.480;2023-08-12T10:25:49;33.90;1.00
14924;DHT22;7554;43.600;1.480;2023-08-12T10:28:20;33.70;1.00
14924;DHT22;7554;43.600;1.480;2023-08-12T10:30:47;33.30;1.00
14924;DHT22;7554;43.600;1.480;2023-08-12T10:33:15;33.50;1.00
14924;DHT22;7554;43.600;1.480;2023-08-12T10:35:45;33.80;1.00
14924;DHT22;7554;43.600;1.480;2023-08-12T10:38:18;33.80;1.00
14924;DHT22;7554;43.600;1.480;2023-08-12T10:40:47;33.60;1.00
14924;DHT22;7554;43.600;1.480;2023-08-12T10:43:14;33.50;1.00
14924;DHT22;7554;43.600;1.480;2023-08-12T10:45:44;33.60;1.00
14924;DHT22;7554;43.600;1.480;2023-08-12T10:48:17;33.70;1.00
14924;DHT22;7554;43.600;1.480;2023-08-12T10:50:48;33.50;1.00
14924;DHT22;7554;43.600;1.480;2023-08-12T10:53:23;33.50;1.00
14924;DHT22;7554;43.600;1.480;2023-08-12T10:55:57;33.70;1.00
14924;DHT22;7554;43.600;1.480;2023-08-12T10:58:28;33.80;1.00
14924;DHT22;7554;43.600;1.480;2023-08-12T11:00:57;33.80;1.00
14924;DHT22;7554;43.600;1.480;2023-08-12T11:03:24;33.50;1.00
14924;DHT22;7554;43.600;1.480;2023-08-12T11:05:53;33.60;1.00
14924;DHT22;7554;43.600;1.480;2023-08-12T11:08:26;32.90;1.00
14924;DHT22;7554;43.600;1.480;2023-08-12T11:10:56;32.90;1.00
14924;DHT22;7554;43.600;1.480;2023-08-12T11:13:27;33.10;1.00
14924;DHT22;7554;43.600;1.480;2023-08-12T11:16:06;33.20;1.00
14924;DHT22;7554;43.600;1.480;2023-08-12T11:18:34;33.40;1.00
14924;DHT22;7554;43.600;1.480;2023-08-12T11:21:03;33.50;1.00
14924;DHT22;7554;43.600;1.480;2023-08-12T11:23:31;32.40;1.00
14924;DHT22;7554;43.600;1.480;2023-08-12T11:26:01;32.60;1.00
14924;DHT22;7554;43.600;1.480;2023-08-12T11:28:28;32.70;1.00
14924;DHT22;7554;43.600;1.480;2023-08-12T11:30:56;32.70;1.00
14924;DHT22;7554;43.600;1.480;2023-08-12T11:33:24;32.60;1.00
14924;DHT22;7554;43.600;1.480;2023-08-12T11:35:51;32.60;1.00
14924;DHT22;7554;43.600;1.480;2023-08-12T11:38:18;32.70;1.00
14924;DHT22;7554;43.600;1.480;2023-08-12T11:40:46;32.90;1.00
14924;DHT22;7554;43.600;1.480;2023-08-12T11:43:14;33.00;1.00
14924;DHT22;7554;43.600;1.480;2023-08-12T11:45:42;33.10;1.00
14924;DHT22;7554;43.600;1.480;2023-08-12T11:48:10;33.20;1.00
14924;DHT22;7554;43.600;1.480;2023-08-12T11:50:37;33.00;1.00
14924;DHT22;7554;43.600;1.480;2023-08-12T11:53:05;33.00;1.00
14924;DHT22;7554;43.600;1.480;2023-08-12T11:55:33;33.00;1.00
14924;DHT22;7554;43.600;1.480;2023-08-12T11:58:00;33.10;1.00
14924;DHT22;7554;43.600;1.480;2023-08-12T12:00:29;33.10;1.00
14924;DHT22;7554;43.600;1.480;2023-08-12T12:02:56;33.00;1.00
14924;DHT22;7554;43.600;1.480;2023-08-12T12:05:26;32.90;1.00
14924;DHT22;7554;43.600;1.480;2023-08-12T12:07:54;32.90;1.00
14924;DHT22;7554;43.600;1.480;2023-08-12T12:10:25;32.70;1.00
14924;DHT22;7554;43.600;1.480;2023-08-12T12:12:54;32.20;1.00
14924;DHT22;7554;43.600;1.480;2023-08-12T12:15:22;32.30;1.00
14924;DHT22;7554;43.600;1.480;2023-08-12T12:17:51;32.20;1.00
14924;DHT22;7554;43.600;1.480;2023-08-12T12:20:19;32.10;1.00
14924;DHT22;7554;43.600;1.480;2023-08-12T12:22:47;32.20;1.00
14924;DHT22;7554;43.600;1.480;2023-08-12T12:25:16;32.40;1.00
14924;DHT22;7554;43.600;1.480;2023-08-12T12:27:46;32.60;1.00
14924;DHT22;7554;43.600;1.480;2023-08-12T12:30:15;32.40;1.00
14924;DHT22;7554;43.600;1.480;2023-08-12T12:32:42;32.40;1.00
14924;DHT22;7554;43.600;1.480;2023-08-12T12:35:12;32.60;1.00
14924;DHT22;7554;43.600;1.480;2023-08-12T12:37:39;32.60;1.00
14924;DHT22;7554;43.600;1.480;2023-08-12T12:40:09;32.60;1.00
14924;DHT22;7554;43.600;1.480;2023-08-12T12:42:37;32.20;1.00
14924;DHT22;7554;43.600;1.480;2023-08-12T12:45:05;32.20;1.00
14924;DHT22;7554;43.600;1.480;2023-08-12T12:47:32;32.10;1.00
14924;DHT22;7554;43.600;1.480;2023-08-12T12:50:00;32.30;1.00
14924;DHT22;7554;43.600;1.480;2023-08-12T12:52:28;31.80;1.00
14924;DHT22;7554;43.600;1.480;2023-08-12T12:54:56;31.90;1.00
14924;DHT22;7554;43.600;1.480;2023-08-12T12:57:23;31.80;1.00
14924;DHT22;7554;43.600;1.480;2023-08-12T12:59:50;31.80;1.00
14924;DHT22;7554;43.600;1.480;2023-08-12T13:02:18;31.80;1.00
14924;DHT22;7554;43.600;1.480;2023-08-12T13:04:45;32.00;1.00
14924;DHT22;7554;43.600;1.480;2023-08-12T13:07:12;32.20;1.00
14924;DHT22;7554;43.600;1.480;2023-08-12T13:09:42;32.50;1.00
14924;DHT22;7554;43.600;1.480;2023-08-12T13:12:09;32.50;1.00
14924;DHT22;7554;43.600;1.480;2023-08-12T13:14:37;32.70;1.00
14924;DHT22;7554;43.600;1.480;2023-08-12T13:17:04;32.70;1.00
14924;DHT22;7554;43.600;1.480;2023-08-12T13:19:31;32.50;1.00
14924;DHT22;7554;43.600;1.480;2023-08-12T13:21:59;32.50;1.00
14924;DHT22;7554;43.600;1.480;2023-08-12T13:24:29;32.60;1.00
14924;DHT22;7554;43.600;1.480;2023-08-12T13:26:57;32.60;1.00
14924;DHT22;7554;43.600;1.480;2023-08-12T13:29:25;32.70;1.00
14924;DHT22;7554;43.600;1.480;2023-08-12T13:31:52;32.70;1.00
14924;DHT22;7554;43.600;1.480;2023-08-12T13:34:20;32.50;1.00
14924;DHT22;7554;43.600;1.480;2023-08-12T13:36:47;32.60;1.00
14924;DHT22;7554;43.600;1.480;2023-08-12T13:39:14;32.60;1.00
14924;DHT22;7554;43.600;1.480;2023-08-12T13:41:41;32.50;1.00
14924;DHT22;7554;43.600;1.480;2023-08-12T13:44:10;32.40;1.00
14924;DHT22;7554;43.600;1.480;2023-08-12T13:46:38;32.30;1.00
14924;DHT22;7554;43.600;1.480;2023-08-12T13:49:06;32.50;1.00
14924;DHT22;7554;43.600;1.480;2023-08-12T13:51:33;32.60;1.00
14924;DHT22;7554;43.600;1.480;2023-08-12T13:54:00;32.40;1.00
14924;DHT22;7554;43.600;1.480;2023-08-12T13:56:27;32.30;1.00
14924;DHT22;7554;43.600;1.480;2023-08-12T13:58:55;32.50;1.00
14924;DHT22;7554;43.600;1.480;2023-08-12T14:01:24;32.50;1.00
14924;DHT22;7554;43.600;1.480;2023-08-12T14:03:51;32.50;1.00
14924;DHT22;7554;43.600;1.480;2023-08-12T14:06:19;32.50;1.00
14924;DHT22;7554;43.600;1.480;2023-08-12T14:08:47;32.50;1.00
14924;DHT22;7554;43.600;1.480;2023-08-12T14:11:14;32.60;1.00
14924;DHT22;7554;43.600;1.480;2023-08-12T14:13:41;32.70;1.00
14924;DHT22;7554;43.600;1.480;2023-08-12T14:16:09;32.80;1.00
14924;DHT22;7554;43.600;1.480;2023-08-12T14:18:37;32.90;1.00
14924;DHT22;7554;43.600;1.480;2023-08-12T14:21:05;33.00;1.00
14924;DHT22;7554;43.600;1.480;2023-08-12T14:23:32;33.10;1.00
14924;DHT22;7554;43.600;1.480;2023-08-12T14:25:59;33.20;1.00
14924;DHT22;7554;43.600;1.480;2023-08-12T14:28:27;33.10;1.00
14924;DHT22;7554;43.600;1.480;2023-08-12T14:30:54;33.10;1.00
14924;DHT22;7554;43.600;1.480;2023-08-12T14:33:21;33.10;1.00
14924;DHT22;7554;43.600;1.480;2023-08-12T14:35:52;33.10;1.00
14924;DHT22;7554;43.600;1.480;2023-08-12T14:38:20;33.00;1.00
14924;DHT22;7554;43.600;1.480;2023-08-12T14:40:47;33.10;1.00
14924;DHT22;7554;43.600;1.480;2023-08-12T14:43:15;33.00;1.00
14924;DHT22;7554;43.600;1.480;2023-08-12T14:45:44;33.00;1.00
14924;DHT22;7554;43.600;1.480;2023-08-12T14:48:12;33.10;1.00
14924;DHT22;7554;43.600;1.480;2023-08-12T14:50:41;33.10;1.00
14924;DHT22;7554;43.600;1.480;2023-08-12T14:53:10;33.00;1.00
14924;DHT22;7554;43.600;1.480;2023-08-12T14:55:37;33.00;1.00
14924;DHT22;7554;43.600;1.480;2023-08-12T14:58:04;33.00;1.00
14924;DHT22;7554;43.600;1.480;2023-08-12T15:00:32;32.90;1.00
14924;DHT22;7554;43.600;1.480;2023-08-12T15:02:59;32.90;1.00
14924;DHT22;7554;43.600;1.480;2023-08-12T15:05:27;32.90;1.00
14924;DHT22;7554;43.600;1.480;2023-08-12T15:07:54;32.80;1.00
14924;DHT22;7554;43.600;1.480;2023-08-12T15:10:23;32.90;1.00
14924;DHT22;7554;43.600;1.480;2023-08-12T15:12:50;32.80;1.00
14924;DHT22;7554;43.600;1.480;2023-08-12T15:15:17;32.60;1.00
14924;DHT22;7554;43.600;1.480;2023-08-12T15:17:45;32.80;1.00
14924;DHT22;7554;43.600;1.480;2023-08-12T15:20:12;33.10;1.00
14924;DHT22;7554;43.600;1.480;2023-08-12T15:22:39;33.20;1.00
14924;DHT22;7554;43.600;1.480;2023-08-12T15:25:07;33.30;1.00
14924;DHT22;7554;43.600;1.480;2023-08-12T15:27:36;33.30;1.00
14924;DHT22;7554;43.600;1.480;2023-08-12T15:30:05;33.30;1.00
14924;DHT22;7554;43.600;1.480;2023-08-12T15:32:32;33.30;1.00
14924;DHT22;7554;43.600;1.480;2023-08-12T15:35:00;33.20;1.00
14924;DHT22;7554;43.600;1.480;2023-08-12T15:37:28;33.30;1.00
14924;DHT22;7554;43.600;1.480;2023-08-12T15:39:55;33.30;1.00
14924;DHT22;7554;43.600;1.480;2023-08-12T15:42:22;33.30;1.00
14924;DHT22;7554;43.600;1.480;2023-08-12T15:44:51;33.20;1.00
14924;DHT22;7554;43.600;1.480;2023-08-12T15:47:18;33.20;1.00
14924;DHT22;7554;43.600;1.480;2023-08-12T15:49:46;33.20;1.00
14924;DHT22;7554;43.600;1.480;2023-08-12T15:52:13;33.10;1.00
14924;DHT22;7554;43.600;1.480;2023-08-12T15:54:40;33.00;1.00
14924;DHT22;7554;43.600;1.480;2023-08-12T15:57:08;33.10;1.00
14924;DHT22;7554;43.600;1.480;2023-08-12T15:59:35;33.20;1.00
14924;DHT22;7554;43.600;1.480;2023-08-12T16:02:05;33.20;1.00
14924;DHT22;7554;43.600;1.480;2023-08-12T16:04:32;33.20;1.00
14924;DHT22;7554;43.600;1.480;2023-08-12T16:06:59;33.20;1.00
14924;DHT22;7554;43.600;1.480;2023-08-12T16:09:27;33.20;1.00